Time;durP1;ratioP1;P1;durP2;ratioP2;P2;SDS_P1;SDS_P2;PMS_P1;PMS_P2;Temp;Humidity;BMP_temperature;BMP_pressure;BME280_temperature;BME280_humidity;BME280_pressure;Samples;Min_cycle;Max_cycle;Signal;HPM_P1;HPM_P2
2022/09/24 00:00:11;;;;;;;10.30;6.57;;;15.50;94.80;;;;;;10359249;28;20121;-67
2022/09/24 00:05:13;;;;;;;8.65;6.38;;;15.50;94.80;;;;;;10359360;28;20029;-67
2022/09/24 00:10:13;;;;;;;9.63;6.15;;;15.50;94.80;;;;;;10358527;28;20041;-67
2022/09/24 00:15:14;;;;;;;10.70;6.25;;;15.50;94.80;;;;;;10354762;28;20025;-67
2022/09/24 00:20:15;;;;;;;7.75;5.80;;;15.50;94.80;;;;;;10356667;28;20438;-68
2022/09/24 00:30:37;;;;;;;10.27;6.18;;;15.50;94.90;;;;;;10352604;28;20466;-67
2022/09/24 00:35:40;;;;;;;10.02;6.47;;;15.50;94.90;;;;;;10354315;28;20026;-67
2022/09/24 00:40:41;;;;;;;8.93;5.85;;;15.50;94.90;;;;;;10358693;28;20037;-67
2022/09/24 00:45:42;;;;;;;10.02;6.70;;;15.50;94.90;;;;;;10573870;22;20510;-66
2022/09/24 00:50:42;;;;;;;9.60;6.45;;;15.50;94.90;;;;;;10366538;28;20041;-67
2022/09/24 00:55:46;;;;;;;10.63;6.85;;;15.50;94.90;;;;;;10368109;28;20226;-67
2022/09/24 01:00:48;;;;;;;9.70;6.45;;;15.50;95.00;;;;;;10363509;28;20030;-67
2022/09/24 01:05:50;;;;;;;10.20;6.40;;;15.50;95.00;;;;;;10367275;28;20033;-67
2022/09/24 01:11:01;;;;;;;8.90;6.38;;;15.50;95.00;;;;;;10356517;28;20034;-67
2022/09/24 01:16:28;;;;;;;11.65;6.38;;;15.50;95.00;;;;;;10360247;28;20029;-67
2022/09/24 01:21:39;;;;;;;11.15;6.75;;;15.50;95.00;;;;;;10359485;28;20030;-67
2022/09/24 01:27:04;;;;;;;10.77;6.70;;;15.50;95.00;;;;;;10365478;28;20719;-67
2022/09/24 01:32:30;;;;;;;12.48;6.90;;;15.50;95.10;;;;;;10367703;28;20045;-67
2022/09/24 01:37:33;;;;;;;12.43;7.47;;;15.50;95.00;;;;;;10357391;28;20079;-67
2022/09/24 01:42:37;;;;;;;11.30;6.68;;;15.50;95.00;;;;;;10360379;28;20030;-67
2022/09/24 01:47:39;;;;;;;10.65;6.32;;;15.50;95.00;;;;;;10360285;28;20042;-67
2022/09/24 01:52:51;;;;;;;12.85;6.68;;;15.50;95.10;;;;;;10366386;28;20040;-67
2022/09/24 01:58:00;;;;;;;10.02;6.28;;;15.50;95.10;;;;;;10354776;28;20054;-67
2022/09/24 02:03:07;;;;;;;;;;;15.50;95.10;;;;;;10370146;28;20510;-68
2022/09/24 02:08:15;;;;;;;11.73;7.13;;;15.40;95.20;;;;;;10365008;28;19909;-67
2022/09/24 02:13:19;;;;;;;12.55;7.22;;;15.50;95.10;;;;;;10360629;28;20095;-68
2022/09/24 02:18:24;;;;;;;11.88;7.03;;;15.40;95.00;;;;;;10369149;28;20057;-68
2022/09/24 02:23:28;;;;;;;11.48;6.82;;;15.40;95.10;;;;;;10361070;28;20402;-68
2022/09/24 02:28:31;;;;;;;12.30;7.47;;;15.40;95.10;;;;;;10363256;28;20112;-66
2022/09/24 02:38:54;;;;;;;12.13;7.22;;;15.40;95.10;;;;;;10360934;28;20486;-66
2022/09/24 02:43:55;;;;;;;10.68;6.78;;;15.40;95.10;;;;;;10363307;28;20021;-67
2022/09/24 02:48:56;;;;;;;11.32;6.85;;;15.50;95.10;;;;;;10368993;28;20046;-66
2022/09/24 02:53:57;;;;;;;11.52;7.20;;;15.40;95.10;;;;;;10369335;28;20026;-69
2022/09/24 02:58:59;;;;;;;12.80;7.38;;;15.50;95.20;;;;;;10372290;28;20125;-67
2022/09/24 03:04:00;;;;;;;11.07;6.55;;;15.40;95.10;;;;;;10368293;28;20140;-67
2022/09/24 03:09:02;;;;;;;10.45;6.55;;;15.40;95.10;;;;;;10366164;28;20030;-67
2022/09/24 03:14:02;;;;;;;10.85;6.93;;;15.40;95.10;;;;;;10358765;28;20503;-67
2022/09/24 03:19:04;;;;;;;12.80;7.43;;;15.40;95.10;;;;;;10372199;28;20038;-67
2022/09/24 03:24:05;;;;;;;10.25;7.00;;;15.40;95.20;;;;;;10368312;28;20364;-67
2022/09/24 03:29:05;;;;;;;11.38;6.75;;;15.40;95.20;;;;;;10372363;28;20042;-67
2022/09/24 03:34:07;;;;;;;12.40;7.28;;;15.40;95.20;;;;;;10373265;28;20102;-67
2022/09/24 03:39:08;;;;;;;13.02;7.68;;;15.40;95.20;;;;;;10369258;28;20034;-67
2022/09/24 03:44:09;;;;;;;11.60;7.40;;;15.40;95.20;;;;;;10364881;28;20605;-66
2022/09/24 03:49:10;;;;;;;13.90;7.90;;;15.40;95.50;;;;;;10370771;28;20257;-67
2022/09/24 03:54:11;;;;;;;14.90;8.10;;;15.40;95.20;;;;;;10366993;28;20030;-67
2022/09/24 03:59:12;;;;;;;13.70;7.25;;;15.40;95.20;;;;;;10369447;28;20038;-67
2022/09/24 04:04:15;;;;;;;12.63;8.30;;;15.40;95.20;;;;;;10375432;28;20022;-68
2022/09/24 04:09:15;;;;;;;13.32;8.07;;;15.40;95.20;;;;;;10376070;28;20049;-67
2022/09/24 04:14:16;;;;;;;12.00;7.57;;;15.40;95.30;;;;;;10369172;28;20041;-66
2022/09/24 04:19:17;;;;;;;15.13;8.50;;;15.40;95.20;;;;;;10376766;28;20026;-67
2022/09/24 04:24:18;;;;;;;12.98;8.02;;;15.40;95.30;;;;;;10379004;28;20049;-67
2022/09/24 04:29:19;;;;;;;10.57;6.95;;;15.40;95.30;;;;;;10371803;28;20033;-67
2022/09/24 04:34:20;;;;;;;13.23;7.90;;;15.40;95.30;;;;;;10365658;28;20041;-67
2022/09/24 04:39:25;;;;;;;12.27;7.03;;;15.40;95.30;;;;;;10372410;28;20038;-67
2022/09/24 04:44:29;;;;;;;11.48;7.50;;;15.40;95.30;;;;;;10370781;28;20034;-69
2022/09/24 04:49:29;;;;;;;15.85;8.38;;;15.40;95.30;;;;;;10376827;28;20095;-67
2022/09/24 04:54:30;;;;;;;11.20;6.97;;;15.40;95.30;;;;;;10373030;28;20503;-67
2022/09/24 04:59:31;;;;;;;14.32;8.38;;;15.40;95.30;;;;;;10368239;28;20065;-67
2022/09/24 05:04:31;;;;;;;13.93;7.70;;;15.40;95.30;;;;;;10373123;28;20021;-67
2022/09/24 05:09:32;;;;;;;13.20;7.90;;;15.50;95.30;;;;;;10377377;28;20137;-67
2022/09/24 05:14:33;;;;;;;13.35;7.90;;;15.40;95.30;;;;;;10369282;28;20038;-68
2022/09/24 05:19:34;;;;;;;13.48;7.65;;;15.40;95.30;;;;;;10365831;28;21459;-67
2022/09/24 05:24:34;;;;;;;11.50;7.30;;;15.40;95.40;;;;;;10361546;28;20042;-66
2022/09/24 05:29:37;;;;;;;13.55;7.68;;;15.40;95.40;;;;;;10369329;28;20057;-67
2022/09/24 05:34:40;;;;;;;13.50;7.70;;;15.50;95.40;;;;;;10370413;28;20038;-67
2022/09/24 05:39:40;;;;;;;12.57;7.25;;;15.40;95.30;;;;;;10367052;28;20033;-67
2022/09/24 05:44:42;;;;;;;12.50;7.68;;;15.40;95.30;;;;;;10371466;28;20033;-67
2022/09/24 05:49:43;;;;;;;11.32;6.88;;;15.40;95.30;;;;;;10363032;28;20398;-67
2022/09/24 05:54:43;;;;;;;11.23;7.30;;;15.40;95.30;;;;;;10365427;28;20033;-67
2022/09/24 05:59:44;;;;;;;11.88;7.40;;;15.40;95.30;;;;;;10366405;28;20030;-68
2022/09/24 06:04:45;;;;;;;11.02;6.85;;;15.40;95.30;;;;;;10366369;28;20643;-66
2022/09/24 06:09:46;;;;;;;11.38;6.95;;;15.40;95.30;;;;;;10370125;28;20116;-67
2022/09/24 06:14:47;;;;;;;13.27;7.40;;;15.40;95.30;;;;;;10361738;28;20034;-67
2022/09/24 06:19:48;;;;;;;11.20;7.18;;;15.40;95.40;;;;;;10366932;28;20044;-66
2022/09/24 06:24:50;;;;;;;11.13;6.25;;;15.40;95.30;;;;;;10364107;28;20026;-67
2022/09/24 06:29:51;;;;;;;9.45;6.60;;;15.40;95.30;;;;;;10367081;28;20053;-67
2022/09/24 06:34:51;;;;;;;11.30;7.03;;;15.40;95.40;;;;;;10368084;28;20030;-67
2022/09/24 06:39:52;;;;;;;9.25;5.80;;;15.40;95.60;;;;;;10368616;28;20098;-67
2022/09/24 06:44:53;;;;;;;10.68;6.10;;;15.40;95.30;;;;;;10342500;28;20436;-68
2022/09/24 06:49:53;;;;;;;9.68;5.95;;;15.40;95.30;;;;;;10301750;28;20056;-68
2022/09/24 06:54:55;;;;;;;9.70;5.57;;;15.40;95.30;;;;;;10335938;28;20036;-68
2022/09/24 06:59:55;;;;;;;9.18;5.60;;;15.40;95.30;;;;;;10359825;28;20033;-67
2022/09/24 07:04:56;;;;;;;8.85;5.47;;;15.40;95.40;;;;;;10320117;28;20037;-66
2022/09/24 07:09:59;;;;;;;8.55;5.72;;;15.40;95.40;;;;;;10312454;28;20053;-68
2022/09/24 07:15:00;;;;;;;8.25;5.28;;;15.40;95.40;;;;;;10298857;28;20656;-66
2022/09/24 07:20:02;;;;;;;9.65;5.72;;;15.40;95.40;;;;;;10352750;28;20080;-66
2022/09/24 07:25:03;;;;;;;7.95;5.65;;;15.40;95.40;;;;;;10361270;28;20325;-66
2022/09/24 07:30:06;;;;;;;7.60;5.10;;;15.40;95.40;;;;;;10294354;28;20045;-66
2022/09/24 07:35:07;;;;;;;6.75;4.60;;;15.40;95.40;;;;;;10313773;28;20072;-65
2022/09/24 07:40:08;;;;;;;7.53;4.72;;;15.40;95.40;;;;;;10289721;28;20033;-66
2022/09/24 07:45:09;;;;;;;7.28;4.88;;;15.40;95.40;;;;;;10289507;28;20050;-67
2022/09/24 07:50:11;;;;;;;8.00;5.00;;;15.40;95.40;;;;;;10277224;28;20827;-67
2022/09/24 07:55:15;;;;;;;9.57;4.85;;;15.40;95.40;;;;;;10280707;28;20061;-66
2022/09/24 08:00:16;;;;;;;6.32;3.95;;;14.90;95.30;;;;;;10287013;28;20489;-67
2022/09/24 08:05:17;;;;;;;6.63;4.53;;;15.40;95.40;;;;;;10282484;28;20276;-65
2022/09/24 08:10:18;;;;;;;6.53;4.55;;;15.40;95.40;;;;;;10279909;28;21359;-66
2022/09/24 08:15:21;;;;;;;7.13;5.00;;;15.40;95.40;;;;;;10279137;28;20109;-71
2022/09/24 08:20:23;;;;;;;6.00;3.70;;;15.40;95.40;;;;;;10289157;28;20915;-65
2022/09/24 08:25:24;;;;;;;5.78;3.88;;;15.50;95.40;;;;;;10283463;28;20974;-72
2022/09/24 08:30:24;;;;;;;6.40;4.30;;;15.50;95.40;;;;;;10274869;28;20056;-66
2022/09/24 08:35:26;;;;;;;6.78;3.97;;;15.50;95.60;;;;;;10274645;28;20227;-65
2022/09/24 08:40:30;;;;;;;5.30;3.40;;;15.50;95.30;;;;;;10267254;28;20538;-65
2022/09/24 08:51:04;;;;;;;5.60;3.60;;;15.50;95.30;;;;;;10295808;28;20121;-74
2022/09/24 08:56:07;;;;;;;5.30;3.58;;;15.50;95.30;;;;;;10306691;28;20027;-65
2022/09/24 09:01:11;;;;;;;5.03;3.28;;;15.50;95.30;;;;;;10284457;28;20517;-66
2022/09/24 09:06:37;;;;;;;4.18;3.28;;;15.50;95.20;;;;;;10296049;28;20114;-65
2022/09/24 09:11:42;;;;;;;3.85;3.10;;;15.20;95.10;;;;;;10292698;28;20057;-66
2022/09/24 09:16:56;;;;;;;4.75;3.33;;;15.60;95.20;;;;;;10282884;28;20025;-68
2022/09/24 09:22:06;;;;;;;4.80;3.08;;;15.60;95.20;;;;;;10287678;28;20322;-67
2022/09/24 09:27:13;;;;;;;8.27;3.35;;;15.60;95.50;;;;;;10296491;28;20017;-71
2022/09/24 09:32:41;;;;;;;5.15;3.08;;;15.60;95.50;;;;;;10275496;28;20406;-66
2022/09/24 09:38:07;;;;;;;5.03;3.00;;;15.70;95.50;;;;;;10293925;28;20457;-66
2022/09/24 09:43:10;;;;;;;7.88;2.90;;;15.70;95.50;;;;;;10311981;28;20053;-65
2022/09/24 10:12:14;;;;;;;15.07;3.67;;;15.80;95.80;;;;;;10178718;28;20111;-64
2022/09/24 10:17:23;;;;;;;7.93;2.72;;;15.70;96.10;;;;;;10252568;28;20742;-61
2022/09/24 10:22:25;;;;;;;4.40;2.10;;;15.80;95.90;;;;;;10965776;23;20074;-67
2022/09/24 10:27:36;;;;;;;5.47;2.10;;;15.80;95.80;;;;;;10178538;28;20463;-68
2022/09/24 10:32:38;;;;;;;5.40;2.30;;;15.90;95.80;;;;;;10168203;28;20046;-67
2022/09/24 10:37:53;;;;;;;5.28;2.00;;;15.90;96.00;;;;;;10175794;28;20063;-65
2022/09/24 10:42:58;;;;;;;3.00;1.67;;;15.90;95.80;;;;;;10180135;28;20046;-66
2022/09/24 10:48:17;;;;;;;4.07;2.00;;;15.90;95.70;;;;;;10182522;28;20032;-64
2022/09/24 10:53:50;;;;;;;3.20;1.73;;;15.90;95.60;;;;;;10174174;28;20154;-65
2022/09/24 10:59:00;;;;;;;2.85;1.80;;;15.90;95.60;;;;;;10170417;28;20051;-67
2022/09/24 11:04:17;;;;;;;5.90;1.95;;;16.00;95.80;;;;;;10170652;28;20035;-63
2022/09/24 11:09:26;;;;;;;3.80;1.70;;;16.00;95.70;;;;;;10177212;28;20658;-68
2022/09/24 11:15:01;;;;;;;5.20;1.60;;;15.90;95.80;;;;;;10176800;28;20038;-69
2022/09/24 11:20:02;;;;;;;5.40;1.65;;;16.20;95.80;;;;;;10164867;28;20043;-64
2022/09/24 11:25:24;;;;;;;4.45;1.70;;;16.00;95.70;;;;;;10180048;28;20103;-67
2022/09/24 11:30:34;;;;;;;3.40;1.40;;;16.00;95.70;;;;;;10181938;28;20047;-66
2022/09/24 11:36:19;;;;;;;2.90;1.50;;;16.00;95.70;;;;;;10180878;28;20732;-69
2022/09/24 11:41:38;;;;;;;2.38;1.45;;;16.00;95.80;;;;;;10008348;29;20402;-64
2022/09/24 11:46:46;;;;;;;4.20;1.45;;;16.00;96.20;;;;;;10137237;28;20047;-66
2022/09/24 11:52:14;;;;;;;5.05;1.38;;;16.00;95.70;;;;;;10181531;28;20062;-68
2022/09/24 11:57:28;;;;;;;5.18;1.90;;;16.00;95.80;;;;;;10183022;28;20459;-65
2022/09/24 12:02:36;;;;;;;3.97;1.30;;;16.00;95.70;;;;;;10176848;28;20310;-65
2022/09/24 12:07:46;;;;;;;3.33;1.60;;;16.00;95.80;;;;;;10157189;28;21170;-65
2022/09/24 12:12:49;;;;;;;3.95;1.20;;;16.00;95.70;;;;;;10178074;28;20097;-65
2022/09/24 12:17:57;;;;;;;2.70;1.40;;;16.00;95.70;;;;;;10175279;28;20049;-65
2022/09/24 12:23:08;;;;;;;3.78;1.50;;;16.10;95.80;;;;;;10174761;28;20183;-64
2022/09/24 12:28:12;;;;;;;2.25;1.23;;;16.10;95.80;;;;;;10169920;28;20409;-65
2022/09/24 12:33:42;;;;;;;2.90;1.77;;;16.10;95.80;;;;;;10175520;28;20243;-63
2022/09/24 12:39:02;;;;;;;1.75;1.08;;;16.20;96.20;;;;;;10174870;28;20515;-64
2022/09/24 12:44:10;;;;;;;2.88;1.02;;;16.40;95.90;;;;;;10169356;28;20023;-63
2022/09/24 12:49:26;;;;;;;2.93;1.30;;;16.40;95.70;;;;;;10169707;28;20074;-63
2022/09/24 12:54:31;;;;;;;2.97;1.20;;;16.40;95.80;;;;;;10153578;28;20329;-63
2022/09/24 12:59:32;;;;;;;4.43;1.10;;;16.50;95.90;;;;;;10169311;28;20245;-63
2022/09/24 13:04:33;;;;;;;2.90;0.90;;;16.30;95.90;;;;;;10172022;28;20023;-63
2022/09/24 13:09:39;;;;;;;2.83;0.98;;;16.20;96.00;;;;;;10162596;28;20078;-61
2022/09/24 13:14:48;;;;;;;2.28;1.10;;;16.20;96.10;;;;;;10170178;28;20030;-61
2022/09/24 13:19:56;;;;;;;1.52;0.93;;;16.20;96.20;;;;;;10144086;28;20034;-61
2022/09/24 13:25:09;;;;;;;6.78;2.03;;;16.20;96.20;;;;;;10160683;28;20052;-61
2022/09/24 13:30:25;;;;;;;1.77;0.90;;;16.10;96.20;;;;;;10161231;28;20357;-61
2022/09/24 13:35:32;;;;;;;2.22;0.82;;;16.20;96.20;;;;;;10158590;28;20023;-61
2022/09/24 13:40:38;;;;;;;3.60;1.00;;;16.20;96.10;;;;;;10171727;28;20023;-61
2022/09/24 13:45:44;;;;;;;2.50;1.00;;;16.20;96.10;;;;;;10160974;28;20627;-60
2022/09/24 13:50:49;;;;;;;1.10;0.70;;;16.20;96.10;;;;;;10158606;28;20938;-60
2022/09/24 13:56:01;;;;;;;2.85;0.85;;;16.30;96.10;;;;;;10159250;28;20030;-64
2022/09/24 14:01:28;;;;;;;3.15;1.15;;;16.00;95.90;;;;;;10155785;28;20617;-60
2022/09/24 14:06:38;;;;;;;5.37;1.17;;;16.30;96.00;;;;;;10160098;28;20035;-65
2022/09/24 14:11:54;;;;;;;2.75;0.80;;;15.90;95.90;;;;;;10152761;28;20109;-61
2022/09/24 14:17:11;;;;;;;2.67;1.23;;;16.30;96.00;;;;;;10138355;28;20264;-65
2022/09/24 14:22:21;;;;;;;2.97;0.80;;;16.30;96.00;;;;;;10145507;28;20140;-62
2022/09/24 14:27:23;;;;;;;2.00;1.00;;;16.20;96.00;;;;;;10157283;28;20488;-60
2022/09/24 14:32:30;;;;;;;4.07;1.20;;;16.20;96.00;;;;;;10137488;28;20047;-61
2022/09/24 14:37:39;;;;;;;2.00;0.65;;;16.20;96.00;;;;;;10148808;28;20201;-61
2022/09/24 14:42:47;;;;;;;2.33;0.80;;;16.20;96.10;;;;;;10135950;28;20087;-62
2022/09/24 14:48:02;;;;;;;2.80;0.70;;;16.20;96.10;;;;;;10153358;28;20127;-61
2022/09/24 14:53:12;;;;;;;3.17;0.80;;;16.20;96.10;;;;;;10143715;28;20331;-62
2022/09/24 14:58:25;;;;;;;1.20;0.65;;;16.20;96.10;;;;;;10152719;28;20038;-64
2022/09/24 15:03:38;;;;;;;1.75;0.80;;;16.20;96.10;;;;;;10149794;28;20036;-61
2022/09/24 15:08:40;;;;;;;1.98;0.60;;;16.20;96.10;;;;;;10141256;28;20899;-61
2022/09/24 15:13:41;;;;;;;5.57;1.77;;;16.20;96.10;;;;;;10150335;28;20047;-61
2022/09/24 15:18:42;;;;;;;0.80;0.60;;;16.20;96.10;;;;;;10151312;28;20034;-61
2022/09/24 15:23:43;;;;;;;1.67;0.65;;;16.20;96.10;;;;;;10160909;28;20170;-61
2022/09/24 15:28:44;;;;;;;0.90;0.70;;;16.20;96.10;;;;;;10150864;28;20031;-62
2022/09/24 15:33:44;;;;;;;1.95;0.60;;;16.20;96.10;;;;;;10172314;28;20355;-61
2022/09/24 15:38:50;;;;;;;4.90;0.95;;;16.20;96.10;;;;;;10176868;28;20035;-63
2022/09/24 15:43:57;;;;;;;2.17;0.90;;;16.10;96.10;;;;;;10151312;28;20885;-62
2022/09/24 15:48:57;;;;;;;1.88;0.90;;;16.10;96.00;;;;;;10156193;28;20314;-65
2022/09/24 15:53:58;;;;;;;5.88;0.98;;;15.70;96.20;;;;;;10162953;28;20344;-63
2022/09/24 15:58:59;;;;;;;6.95;1.10;;;15.60;96.60;;;;;;10165489;28;20853;-68
2022/09/24 16:03:59;;;;;;;2.80;1.10;;;15.70;96.60;;;;;;10181519;28;20567;-62
2022/09/24 16:09:00;;;;;;;2.63;0.85;;;15.80;96.50;;;;;;10153682;28;20371;-61
2022/09/24 16:14:01;;;;;;;3.47;1.02;;;15.90;96.50;;;;;;10175159;28;20306;-66
2022/09/24 16:19:02;;;;;;;2.45;1.00;;;15.90;96.50;;;;;;10184613;28;21034;-70
2022/09/24 16:24:02;;;;;;;2.90;1.00;;;16.00;96.50;;;;;;10169504;28;20551;-62
2022/09/24 16:29:04;;;;;;;4.55;1.17;;;16.00;96.50;;;;;;10150539;28;20202;-61
2022/09/24 16:34:05;;;;;;;2.45;0.90;;;16.00;96.60;;;;;;10159867;28;20133;-61
2022/09/24 16:39:06;;;;;;;8.43;1.08;;;16.00;96.50;;;;;;10174676;28;20868;-61
2022/09/24 16:44:09;;;;;;;3.80;0.85;;;16.00;96.50;;;;;;10154958;28;20711;-63
2022/09/24 16:49:10;;;;;;;5.50;1.23;;;16.00;96.60;;;;;;10162784;28;20295;-61
2022/09/24 16:54:12;;;;;;;3.38;0.90;;;15.80;96.70;;;;;;10154105;28;20440;-62
2022/09/24 16:59:15;;;;;;;6.40;1.05;;;15.70;96.80;;;;;;10182381;28;20984;-61
2022/09/24 17:04:15;;;;;;;2.40;1.10;;;15.70;96.80;;;;;;10179187;28;20773;-62
2022/09/24 17:14:38;;;;;;;5.28;1.17;;;15.80;96.70;;;;;;10167175;28;20154;-61
2022/09/24 17:19:39;;;;;;;3.72;1.00;;;15.80;96.70;;;;;;10166998;28;20323;-62
2022/09/24 17:24:40;;;;;;;2.47;0.95;;;15.90;96.60;;;;;;10169585;28;20262;-62
2022/09/24 17:29:43;;;;;;;2.35;1.10;;;15.90;96.60;;;;;;10161195;28;20524;-62
2022/09/24 17:34:44;;;;;;;5.22;1.00;;;15.90;96.70;;;;;;10165244;28;20125;-63
2022/09/24 17:39:46;;;;;;;5.43;1.38;;;15.90;96.60;;;;;;10164581;28;20845;-62
2022/09/24 17:44:46;;;;;;;2.45;1.00;;;15.90;96.60;;;;;;10152614;28;20027;-61
2022/09/24 17:49:47;;;;;;;4.25;0.90;;;15.90;96.50;;;;;;10171251;28;20888;-61
2022/09/24 17:54:51;;;;;;;4.13;1.08;;;15.90;96.50;;;;;;10139905;28;20385;-61
2022/09/24 17:59:52;;;;;;;2.72;1.40;;;15.90;96.50;;;;;;10200219;28;20034;-62
2022/09/24 18:04:52;;;;;;;4.10;1.13;;;15.90;96.50;;;;;;10239420;28;20393;-62
2022/09/24 18:09:54;;;;;;;2.88;1.10;;;15.90;96.40;;;;;;10240815;28;20054;-62
2022/09/24 18:14:55;;;;;;;1.77;0.70;;;15.90;96.40;;;;;;10242378;28;20417;-61
2022/09/24 18:19:56;;;;;;;9.73;1.40;;;15.90;96.40;;;;;;10238487;28;20039;-61
2022/09/24 18:24:59;;;;;;;3.50;1.83;;;15.90;96.40;;;;;;10238525;28;20075;-62
2022/09/24 18:30:01;;;;;;;3.25;0.85;;;15.90;96.40;;;;;;10235892;28;20107;-61
2022/09/24 18:35:02;;;;;;;5.70;1.88;;;15.90;96.40;;;;;;10235666;28;20031;-63
2022/09/24 18:40:04;;;;;;;2.97;1.20;;;15.80;96.50;;;;;;10240638;28;20031;-65
2022/09/24 18:45:05;;;;;;;3.72;1.00;;;15.80;96.30;;;;;;10241833;28;20030;-65
2022/09/24 18:50:07;;;;;;;2.08;1.00;;;15.80;96.30;;;;;;10238940;28;20699;-64
2022/09/24 18:55:08;;;;;;;2.30;1.00;;;15.80;96.30;;;;;;10238009;28;20027;-63
2022/09/24 19:00:48;;;;;;;2.92;1.10;;;15.80;96.30;;;;;;10229639;28;20055;-63
2022/09/24 19:05:30;;;;;;;3.00;0.95;;;15.80;96.30;;;;;;10239263;28;20027;-64
2022/09/24 19:10:31;;;;;;;1.83;0.98;;;15.80;96.30;;;;;;10251613;28;20575;-63
2022/09/24 19:15:39;;;;;;;1.60;0.88;;;15.80;96.30;;;;;;10242273;28;20034;-64
2022/09/24 19:20:45;;;;;;;2.70;1.10;;;15.80;96.20;;;;;;10233704;28;20463;-76
2022/09/24 19:25:46;;;;;;;3.47;1.40;;;15.70;96.20;;;;;;10240437;28;20043;-64
2022/09/24 19:30:48;;;;;;;1.48;0.98;;;15.70;96.20;;;;;;10240004;28;20039;-63
2022/09/24 19:35:57;;;;;;;2.65;1.40;;;15.70;96.20;;;;;;10242543;28;20036;-64
2022/09/24 19:41:00;;;;;;;1.88;0.90;;;15.70;96.20;;;;;;10236300;28;20035;-68
2022/09/24 19:46:05;;;;;;;2.15;0.98;;;15.70;96.20;;;;;;10239816;28;20032;-63
2022/09/24 19:51:22;;;;;;;3.97;1.30;;;15.70;96.20;;;;;;10239062;28;20035;-73
2022/09/24 19:56:24;;;;;;;1.48;0.95;;;15.60;96.10;;;;;;10241044;28;20019;-68
2022/09/24 20:01:27;;;;;;;3.13;1.30;;;15.60;96.10;;;;;;10232852;28;20030;-64
2022/09/24 20:06:32;;;;;;;2.22;1.00;;;15.60;96.10;;;;;;10239660;28;20366;-65
2022/09/24 20:11:33;;;;;;;4.78;1.38;;;15.60;96.10;;;;;;10247597;28;21847;-65
2022/09/24 20:16:34;;;;;;;2.13;1.10;;;15.60;96.10;;;;;;10248190;28;20539;-63
2022/09/24 20:21:37;;;;;;;4.32;1.20;;;15.50;96.00;;;;;;10243333;28;20056;-64
2022/09/24 20:31:57;;;;;;;1.98;1.10;;;15.50;96.00;;;;;;10245005;28;20062;-72
2022/09/24 20:37:00;;;;;;;3.47;1.27;;;15.50;96.00;;;;;;10234736;28;21343;-64
2022/09/24 20:42:01;;;;;;;2.95;1.20;;;15.50;96.00;;;;;;10245440;28;20035;-63
2022/09/24 20:47:02;;;;;;;2.42;1.40;;;15.50;96.00;;;;;;10240090;28;20027;-64
2022/09/24 20:52:04;;;;;;;2.28;1.13;;;15.40;95.90;;;;;;10237229;28;20035;-67
2022/09/24 20:57:05;;;;;;;5.10;1.27;;;15.40;95.90;;;;;;10241954;28;20615;-63
2022/09/24 21:02:06;;;;;;;2.83;1.30;;;15.40;95.90;;;;;;10244454;28;20042;-63
2022/09/24 21:07:07;;;;;;;3.08;1.20;;;15.40;95.90;;;;;;10240949;28;20026;-63
2022/09/24 21:12:07;;;;;;;5.47;1.58;;;15.30;95.90;;;;;;10241622;28;20030;-63
2022/09/24 21:17:09;;;;;;;4.38;1.40;;;15.30;95.80;;;;;;10250140;28;20027;-63
2022/09/24 21:22:11;;;;;;;4.22;1.58;;;15.30;95.80;;;;;;10238719;28;20118;-78
2022/09/24 21:27:12;;;;;;;3.22;1.45;;;15.30;95.80;;;;;;10232736;28;20034;-63
2022/09/24 21:32:16;;;;;;;3.00;1.33;;;15.30;95.80;;;;;;10246790;28;20419;-63
2022/09/24 21:37:17;;;;;;;1.63;1.15;;;15.30;95.80;;;;;;10234106;28;20027;-63
2022/09/24 21:42:18;;;;;;;4.07;1.38;;;15.20;95.80;;;;;;10249601;28;20019;-62
2022/09/24 21:47:19;;;;;;;2.95;1.30;;;15.30;95.80;;;;;;10239512;28;20444;-61
2022/09/24 21:52:20;;;;;;;1.50;1.30;;;15.20;95.80;;;;;;10237570;28;20130;-63
2022/09/24 21:57:20;;;;;;;3.00;1.88;;;15.20;95.70;;;;;;10239984;28;20030;-63
2022/09/24 22:02:21;;;;;;;4.38;1.70;;;15.10;95.70;;;;;;10249877;28;20030;-64
2022/09/24 22:07:22;;;;;;;3.00;1.50;;;15.10;95.70;;;;;;10244378;28;20119;-64
2022/09/24 22:12:23;;;;;;;2.30;1.40;;;15.10;95.90;;;;;;10240046;28;20527;-63
2022/09/24 22:17:23;;;;;;;3.95;1.65;;;15.10;95.60;;;;;;10249106;28;20125;-63
2022/09/24 22:22:24;;;;;;;5.80;2.00;;;15.10;95.60;;;;;;10246341;28;20057;-63
2022/09/24 22:27:25;;;;;;;3.00;1.45;;;15.10;95.60;;;;;;10236900;28;20115;-69
2022/09/24 22:32:26;;;;;;;4.53;1.60;;;15.00;95.60;;;;;;10240285;28;20122;-62
2022/09/24 22:37:26;;;;;;;3.17;1.42;;;15.00;95.60;;;;;;10237598;28;20034;-63
2022/09/24 22:42:27;;;;;;;3.72;1.63;;;15.00;95.80;;;;;;10240374;28;20125;-65
2022/09/24 22:47:28;;;;;;;4.15;1.38;;;15.00;95.60;;;;;;10234254;28;20027;-63
2022/09/24 22:52:28;;;;;;;2.50;1.27;;;15.00;95.50;;;;;;10241420;28;20495;-64
2022/09/24 22:57:31;;;;;;;4.03;1.55;;;15.00;95.50;;;;;;10238016;28;20035;-63
2022/09/24 23:02:34;;;;;;;4.47;1.60;;;14.90;95.50;;;;;;10239003;28;20039;-63
2022/09/24 23:07:34;;;;;;;3.28;1.70;;;14.90;95.40;;;;;;10242483;28;20361;-65
2022/09/24 23:12:35;;;;;;;5.20;1.40;;;14.90;95.40;;;;;;10245598;28;20061;-64
2022/09/24 23:17:36;;;;;;;3.63;1.65;;;14.90;95.40;;;;;;10245156;28;20122;-66
2022/09/24 23:22:37;;;;;;;2.13;1.42;;;14.90;95.30;;;;;;10246937;28;20143;-63
2022/09/24 23:27:38;;;;;;;3.42;1.60;;;14.90;95.30;;;;;;10237247;28;20031;-63
2022/09/24 23:32:38;;;;;;;2.97;1.90;;;14.90;95.30;;;;;;10240656;28;20139;-70
2022/09/24 23:37:39;;;;;;;6.32;1.73;;;14.90;95.30;;;;;;10244631;28;20030;-63
2022/09/24 23:42:40;;;;;;;8.35;1.70;;;14.80;95.20;;;;;;10254210;28;20086;-63
2022/09/24 23:47:40;;;;;;;4.28;2.25;;;14.80;95.20;;;;;;10235710;28;20024;-64
2022/09/24 23:52:41;;;;;;;4.68;1.67;;;14.80;95.20;;;;;;10238772;28;20063;-63
2022/09/24 23:57:42;;;;;;;3.38;1.70;;;14.80;95.20;;;;;;10235280;28;20035;-62
